Gladwin, Michigan
Current Conditions -  °F | °C
As of 4:35 AM on Monday 24 Nov 2014 (Local Time) from KIKW Reporting Station
Light Rain Light Rain  
Wind Chill: 52°   Ceiling: 500
Heat Index: 52°   Visibility: 10mi
Dew Point: 51°   Wind: 9mph
Humidity: 98%   Direction: 210°SSW
Pressure: 28.97"   Gusts: NA
Location:  43.98°N, 84.49°W
Report Text: KIKW 240935Z AUTO 21008KT 10SM -RA OVC005 11/11 A2897 RMK AO2 P0001 T01090106
Loading
Personal Weather Stations






























Interactive Weather Map New forecast layout! Learn more

10-Day Weather Forecast

Advertisements
Track Severe Weather on mobile